sensor_id;sensor_type;location;lat;lon;timestamp;temperature;humidity
14122;DHT22;7139;48.114;11.442;2023-04-15T00:00:42;6.80;99.90
14122;DHT22;7139;48.114;11.442;2023-04-15T00:03:09;6.80;99.90
14122;DHT22;7139;48.114;11.442;2023-04-15T00:05:35;6.80;99.90
14122;DHT22;7139;48.114;11.442;2023-04-15T00:08:04;6.70;99.90
14122;DHT22;7139;48.114;11.442;2023-04-15T00:10:31;6.80;99.90
14122;DHT22;7139;48.114;11.442;2023-04-15T00:12:57;6.80;99.90
14122;DHT22;7139;48.114;11.442;2023-04-15T00:15:24;6.70;99.90
14122;DHT22;7139;48.114;11.442;2023-04-15T00:17:51;6.70;99.90
14122;DHT22;7139;48.114;11.442;2023-04-15T00:20:18;6.70;99.90
14122;DHT22;7139;48.114;11.442;2023-04-15T00:22:45;6.70;99.90
14122;DHT22;7139;48.114;11.442;2023-04-15T00:25:13;6.70;99.90
14122;DHT22;7139;48.114;11.442;2023-04-15T00:27:41;6.70;99.90
14122;DHT22;7139;48.114;11.442;2023-04-15T00:30:08;6.70;99.90
14122;DHT22;7139;48.114;11.442;2023-04-15T00:32:36;6.60;99.90
14122;DHT22;7139;48.114;11.442;2023-04-15T00:35:03;6.60;99.90
14122;DHT22;7139;48.114;11.442;2023-04-15T00:37:30;6.60;99.90
14122;DHT22;7139;48.114;11.442;2023-04-15T00:39:56;6.60;99.90
14122;DHT22;7139;48.114;11.442;2023-04-15T00:42:25;6.60;99.90
14122;DHT22;7139;48.114;11.442;2023-04-15T00:44:52;6.60;99.90
14122;DHT22;7139;48.114;11.442;2023-04-15T00:47:20;6.60;99.90
14122;DHT22;7139;48.114;11.442;2023-04-15T00:49:47;6.60;99.90
14122;DHT22;7139;48.114;11.442;2023-04-15T00:52:13;6.60;99.90
14122;DHT22;7139;48.114;11.442;2023-04-15T00:54:40;6.70;99.90
14122;DHT22;7139;48.114;11.442;2023-04-15T00:57:07;6.70;99.90
14122;DHT22;7139;48.114;11.442;2023-04-15T00:59:35;6.70;99.90
14122;DHT22;7139;48.114;11.442;2023-04-15T01:02:02;6.70;99.90
14122;DHT22;7139;48.114;11.442;2023-04-15T01:04:29;6.70;99.90
14122;DHT22;7139;48.114;11.442;2023-04-15T01:06:56;6.60;99.90
14122;DHT22;7139;48.114;11.442;2023-04-15T01:09:23;6.60;99.90
14122;DHT22;7139;48.114;11.442;2023-04-15T01:11:50;6.60;99.90
14122;DHT22;7139;48.114;11.442;2023-04-15T01:14:16;6.60;99.90
14122;DHT22;7139;48.114;11.442;2023-04-15T01:16:45;6.60;99.90
14122;DHT22;7139;48.114;11.442;2023-04-15T01:19:13;6.50;99.90
14122;DHT22;7139;48.114;11.442;2023-04-15T01:21:42;6.50;99.90
14122;DHT22;7139;48.114;11.442;2023-04-15T01:24:10;6.50;99.90
14122;DHT22;7139;48.114;11.442;2023-04-15T01:26:39;6.50;99.90
14122;DHT22;7139;48.114;11.442;2023-04-15T01:29:06;6.50;99.90
14122;DHT22;7139;48.114;11.442;2023-04-15T01:31:33;6.50;99.90
14122;DHT22;7139;48.114;11.442;2023-04-15T01:33:59;6.50;99.90
14122;DHT22;7139;48.114;11.442;2023-04-15T01:36:26;6.60;99.90
14122;DHT22;7139;48.114;11.442;2023-04-15T01:38:55;6.60;99.90
14122;DHT22;7139;48.114;11.442;2023-04-15T01:41:24;6.60;99.90
14122;DHT22;7139;48.114;11.442;2023-04-15T01:43:52;6.60;99.90
14122;DHT22;7139;48.114;11.442;2023-04-15T01:46:19;6.60;99.90
14122;DHT22;7139;48.114;11.442;2023-04-15T01:48:46;6.60;99.90
14122;DHT22;7139;48.114;11.442;2023-04-15T01:51:13;6.60;99.90
14122;DHT22;7139;48.114;11.442;2023-04-15T01:53:39;6.60;99.90
14122;DHT22;7139;48.114;11.442;2023-04-15T01:56:06;6.60;99.90
14122;DHT22;7139;48.114;11.442;2023-04-15T01:58:33;6.60;99.90
14122;DHT22;7139;48.114;11.442;2023-04-15T02:01:01;6.60;99.90
14122;DHT22;7139;48.114;11.442;2023-04-15T02:03:29;6.60;99.90
14122;DHT22;7139;48.114;11.442;2023-04-15T02:05:55;6.60;99.90
14122;DHT22;7139;48.114;11.442;2023-04-15T02:08:23;6.60;99.90
14122;DHT22;7139;48.114;11.442;2023-04-15T02:10:49;6.60;99.90
14122;DHT22;7139;48.114;11.442;2023-04-15T02:13:16;6.60;99.90
14122;DHT22;7139;48.114;11.442;2023-04-15T02:15:46;6.60;99.90
14122;DHT22;7139;48.114;11.442;2023-04-15T02:18:14;6.60;99.90
14122;DHT22;7139;48.114;11.442;2023-04-15T02:20:41;6.60;99.90
14122;DHT22;7139;48.114;11.442;2023-04-15T02:23:09;6.60;99.90
14122;DHT22;7139;48.114;11.442;2023-04-15T02:25:36;6.60;99.90
14122;DHT22;7139;48.114;11.442;2023-04-15T02:28:03;6.60;99.90
14122;DHT22;7139;48.114;11.442;2023-04-15T02:30:30;6.60;99.90
14122;DHT22;7139;48.114;11.442;2023-04-15T02:32:57;6.70;99.90
14122;DHT22;7139;48.114;11.442;2023-04-15T02:35:25;6.70;99.90
14122;DHT22;7139;48.114;11.442;2023-04-15T02:37:52;6.60;99.90
14122;DHT22;7139;48.114;11.442;2023-04-15T02:40:19;6.60;99.90
14122;DHT22;7139;48.114;11.442;2023-04-15T02:42:46;6.60;99.90
14122;DHT22;7139;48.114;11.442;2023-04-15T02:45:12;6.60;99.90
14122;DHT22;7139;48.114;11.442;2023-04-15T02:47:39;6.60;99.90
14122;DHT22;7139;48.114;11.442;2023-04-15T02:50:10;6.60;99.90
14122;DHT22;7139;48.114;11.442;2023-04-15T02:52:39;6.60;99.90
14122;DHT22;7139;48.114;11.442;2023-04-15T02:55:07;6.60;99.90
14122;DHT22;7139;48.114;11.442;2023-04-15T02:57:34;6.60;99.90
14122;DHT22;7139;48.114;11.442;2023-04-15T03:00:01;6.60;99.90
14122;DHT22;7139;48.114;11.442;2023-04-15T03:02:33;6.60;99.90
14122;DHT22;7139;48.114;11.442;2023-04-15T03:04:59;6.50;99.90
14122;DHT22;7139;48.114;11.442;2023-04-15T03:07:26;6.50;99.90
14122;DHT22;7139;48.114;11.442;2023-04-15T03:09:54;6.50;99.90
14122;DHT22;7139;48.114;11.442;2023-04-15T03:12:21;6.60;99.90
14122;DHT22;7139;48.114;11.442;2023-04-15T03:14:48;6.50;99.90
14122;DHT22;7139;48.114;11.442;2023-04-15T03:17:14;6.50;99.90
14122;DHT22;7139;48.114;11.442;2023-04-15T03:19:42;6.50;99.90
14122;DHT22;7139;48.114;11.442;2023-04-15T03:22:09;6.50;99.90
14122;DHT22;7139;48.114;11.442;2023-04-15T03:24:36;6.50;99.90
14122;DHT22;7139;48.114;11.442;2023-04-15T03:27:04;6.50;99.90
14122;DHT22;7139;48.114;11.442;2023-04-15T03:29:32;6.50;99.90
14122;DHT22;7139;48.114;11.442;2023-04-15T03:31:59;6.50;99.90
14122;DHT22;7139;48.114;11.442;2023-04-15T03:34:26;6.50;99.90
14122;DHT22;7139;48.114;11.442;2023-04-15T03:36:53;6.50;99.90
14122;DHT22;7139;48.114;11.442;2023-04-15T03:39:19;6.50;99.90
14122;DHT22;7139;48.114;11.442;2023-04-15T03:41:46;6.50;99.90
14122;DHT22;7139;48.114;11.442;2023-04-15T03:44:14;6.50;99.90
14122;DHT22;7139;48.114;11.442;2023-04-15T03:46:41;6.50;99.90
14122;DHT22;7139;48.114;11.442;2023-04-15T03:49:08;6.50;99.90
14122;DHT22;7139;48.114;11.442;2023-04-15T03:51:35;6.50;99.90
14122;DHT22;7139;48.114;11.442;2023-04-15T03:54:01;6.50;99.90
14122;DHT22;7139;48.114;11.442;2023-04-15T03:56:28;6.50;99.90
14122;DHT22;7139;48.114;11.442;2023-04-15T03:58:55;6.60;99.90
14122;DHT22;7139;48.114;11.442;2023-04-15T04:01:23;6.60;99.90
14122;DHT22;7139;48.114;11.442;2023-04-15T04:03:50;6.60;99.90
14122;DHT22;7139;48.114;11.442;2023-04-15T04:06:17;6.50;99.90
14122;DHT22;7139;48.114;11.442;2023-04-15T04:08:43;6.50;99.90
14122;DHT22;7139;48.114;11.442;2023-04-15T04:11:10;6.50;99.90
14122;DHT22;7139;48.114;11.442;2023-04-15T04:13:37;6.50;99.90
14122;DHT22;7139;48.114;11.442;2023-04-15T04:16:04;6.50;99.90
14122;DHT22;7139;48.114;11.442;2023-04-15T04:18:33;6.50;99.90
14122;DHT22;7139;48.114;11.442;2023-04-15T04:21:00;6.50;99.90
14122;DHT22;7139;48.114;11.442;2023-04-15T04:23:26;6.50;99.90
14122;DHT22;7139;48.114;11.442;2023-04-15T04:25:53;6.50;99.90
14122;DHT22;7139;48.114;11.442;2023-04-15T04:28:20;6.50;99.90
14122;DHT22;7139;48.114;11.442;2023-04-15T04:30:47;6.50;99.90
14122;DHT22;7139;48.114;11.442;2023-04-15T04:33:13;6.50;99.90
14122;DHT22;7139;48.114;11.442;2023-04-15T04:35:41;6.40;99.90
14122;DHT22;7139;48.114;11.442;2023-04-15T04:38:08;6.40;99.90
14122;DHT22;7139;48.114;11.442;2023-04-15T04:40:35;6.40;99.90
14122;DHT22;7139;48.114;11.442;2023-04-15T04:43:02;6.40;99.90
14122;DHT22;7139;48.114;11.442;2023-04-15T04:45:29;6.30;99.90
14122;DHT22;7139;48.114;11.442;2023-04-15T04:47:55;6.30;99.90
14122;DHT22;7139;48.114;11.442;2023-04-15T04:50:22;6.30;99.90
14122;DHT22;7139;48.114;11.442;2023-04-15T04:52:50;6.30;99.90
14122;DHT22;7139;48.114;11.442;2023-04-15T04:55:17;6.30;99.90
14122;DHT22;7139;48.114;11.442;2023-04-15T04:57:44;6.30;99.90
14122;DHT22;7139;48.114;11.442;2023-04-15T05:00:11;6.30;99.90
14122;DHT22;7139;48.114;11.442;2023-04-15T05:02:38;6.40;99.90
14122;DHT22;7139;48.114;11.442;2023-04-15T05:05:06;6.40;99.90
14122;DHT22;7139;48.114;11.442;2023-04-15T05:07:33;6.40;99.90
14122;DHT22;7139;48.114;11.442;2023-04-15T05:10:02;6.40;99.90
14122;DHT22;7139;48.114;11.442;2023-04-15T05:12:29;6.40;99.90
14122;DHT22;7139;48.114;11.442;2023-04-15T05:14:55;6.40;99.90
14122;DHT22;7139;48.114;11.442;2023-04-15T05:17:22;6.30;99.90
14122;DHT22;7139;48.114;11.442;2023-04-15T05:19:49;6.30;99.90
14122;DHT22;7139;48.114;11.442;2023-04-15T05:22:16;6.30;99.90
14122;DHT22;7139;48.114;11.442;2023-04-15T05:24:42;6.30;99.90
14122;DHT22;7139;48.114;11.442;2023-04-15T05:27:10;6.30;99.90
14122;DHT22;7139;48.114;11.442;2023-04-15T05:29:37;6.40;99.90
14122;DHT22;7139;48.114;11.442;2023-04-15T05:32:05;6.40;99.90
14122;DHT22;7139;48.114;11.442;2023-04-15T05:34:31;6.30;99.90
14122;DHT22;7139;48.114;11.442;2023-04-15T05:36:58;6.40;99.90
14122;DHT22;7139;48.114;11.442;2023-04-15T05:39:25;6.40;99.90
14122;DHT22;7139;48.114;11.442;2023-04-15T05:41:52;6.30;99.90
14122;DHT22;7139;48.114;11.442;2023-04-15T05:44:20;6.30;99.90
14122;DHT22;7139;48.114;11.442;2023-04-15T05:46:46;6.40;99.90
14122;DHT22;7139;48.114;11.442;2023-04-15T05:49:13;6.40;99.90
14122;DHT22;7139;48.114;11.442;2023-04-15T05:51:40;6.40;99.90
14122;DHT22;7139;48.114;11.442;2023-04-15T05:54:07;6.40;99.90
14122;DHT22;7139;48.114;11.442;2023-04-15T05:56:34;6.40;99.90
14122;DHT22;7139;48.114;11.442;2023-04-15T05:59:01;6.40;99.90
14122;DHT22;7139;48.114;11.442;2023-04-15T06:01:29;6.40;99.90
14122;DHT22;7139;48.114;11.442;2023-04-15T06:03:56;6.40;99.90
14122;DHT22;7139;48.114;11.442;2023-04-15T06:06:23;6.50;99.90
14122;DHT22;7139;48.114;11.442;2023-04-15T06:08:50;6.40;99.90
14122;DHT22;7139;48.114;11.442;2023-04-15T06:11:16;6.50;99.90
14122;DHT22;7139;48.114;11.442;2023-04-15T06:13:43;6.50;99.90
14122;DHT22;7139;48.114;11.442;2023-04-15T06:16:10;6.40;99.90
14122;DHT22;7139;48.114;11.442;2023-04-15T06:18:38;6.50;99.90
14122;DHT22;7139;48.114;11.442;2023-04-15T06:21:05;6.50;99.90
14122;DHT22;7139;48.114;11.442;2023-04-15T06:23:33;6.50;99.90
14122;DHT22;7139;48.114;11.442;2023-04-15T06:26:00;6.60;99.90
14122;DHT22;7139;48.114;11.442;2023-04-15T06:28:27;6.60;99.90
14122;DHT22;7139;48.114;11.442;2023-04-15T06:30:55;6.60;99.90
14122;DHT22;7139;48.114;11.442;2023-04-15T06:33:21;6.60;99.90
14122;DHT22;7139;48.114;11.442;2023-04-15T06:35:50;6.60;99.90
14122;DHT22;7139;48.114;11.442;2023-04-15T06:38:16;6.60;99.90
14122;DHT22;7139;48.114;11.442;2023-04-15T06:40:43;6.70;99.90
14122;DHT22;7139;48.114;11.442;2023-04-15T06:43:10;6.70;99.90
14122;DHT22;7139;48.114;11.442;2023-04-15T06:45:37;6.80;99.90
14122;DHT22;7139;48.114;11.442;2023-04-15T06:48:04;6.80;99.90
14122;DHT22;7139;48.114;11.442;2023-04-15T06:50:31;6.80;99.90
14122;DHT22;7139;48.114;11.442;2023-04-15T06:52:59;6.80;99.90
14122;DHT22;7139;48.114;11.442;2023-04-15T06:55:26;6.80;99.90
14122;DHT22;7139;48.114;11.442;2023-04-15T06:57:53;6.90;99.90
14122;DHT22;7139;48.114;11.442;2023-04-15T07:00:19;7.00;99.90
14122;DHT22;7139;48.114;11.442;2023-04-15T07:02:46;7.00;99.90
14122;DHT22;7139;48.114;11.442;2023-04-15T07:05:13;7.00;99.90
14122;DHT22;7139;48.114;11.442;2023-04-15T07:07:40;7.00;99.90
14122;DHT22;7139;48.114;11.442;2023-04-15T07:10:09;7.00;99.90
14122;DHT22;7139;48.114;11.442;2023-04-15T07:12:36;7.00;99.90
14122;DHT22;7139;48.114;11.442;2023-04-15T07:15:04;7.00;99.90
14122;DHT22;7139;48.114;11.442;2023-04-15T07:17:31;7.10;99.90
14122;DHT22;7139;48.114;11.442;2023-04-15T07:19:57;7.20;99.90
14122;DHT22;7139;48.114;11.442;2023-04-15T07:22:24;7.20;99.90
14122;DHT22;7139;48.114;11.442;2023-04-15T07:24:51;7.30;99.90
14122;DHT22;7139;48.114;11.442;2023-04-15T07:27:19;7.30;99.90
14122;DHT22;7139;48.114;11.442;2023-04-15T07:29:46;7.40;99.90
14122;DHT22;7139;48.114;11.442;2023-04-15T07:32:13;7.40;99.90
14122;DHT22;7139;48.114;11.442;2023-04-15T07:34:40;7.40;99.90
14122;DHT22;7139;48.114;11.442;2023-04-15T07:37:08;7.40;99.90
14122;DHT22;7139;48.114;11.442;2023-04-15T07:39:34;7.40;99.90
14122;DHT22;7139;48.114;11.442;2023-04-15T07:42:01;7.60;99.90
14122;DHT22;7139;48.114;11.442;2023-04-15T07:44:30;7.60;99.90
14122;DHT22;7139;48.114;11.442;2023-04-15T07:46:57;7.70;99.90
14122;DHT22;7139;48.114;11.442;2023-04-15T07:49:23;7.70;99.80
14122;DHT22;7139;48.114;11.442;2023-04-15T07:51:50;7.70;99.60
14122;DHT22;7139;48.114;11.442;2023-04-15T07:54:17;7.80;99.50
14122;DHT22;7139;48.114;11.442;2023-04-15T07:56:44;7.90;99.80
14122;DHT22;7139;48.114;11.442;2023-04-15T07:59:10;8.00;99.60
14122;DHT22;7139;48.114;11.442;2023-04-15T08:01:38;8.10;99.80
14122;DHT22;7139;48.114;11.442;2023-04-15T08:04:05;8.20;99.50
14122;DHT22;7139;48.114;11.442;2023-04-15T08:06:32;8.30;99.30
14122;DHT22;7139;48.114;11.442;2023-04-15T08:08:59;8.50;99.50
14122;DHT22;7139;48.114;11.442;2023-04-15T08:11:26;8.50;98.50
14122;DHT22;7139;48.114;11.442;2023-04-15T08:13:53;8.50;98.40
14122;DHT22;7139;48.114;11.442;2023-04-15T08:16:21;8.60;99.10
14122;DHT22;7139;48.114;11.442;2023-04-15T08:18:51;8.70;98.80
14122;DHT22;7139;48.114;11.442;2023-04-15T08:21:18;8.80;98.80
14122;DHT22;7139;48.114;11.442;2023-04-15T08:23:47;9.00;97.80
14122;DHT22;7139;48.114;11.442;2023-04-15T08:26:14;8.90;98.10
14122;DHT22;7139;48.114;11.442;2023-04-15T08:28:42;8.90;97.60
14122;DHT22;7139;48.114;11.442;2023-04-15T08:31:10;8.90;97.50
14122;DHT22;7139;48.114;11.442;2023-04-15T08:33:37;9.00;97.60
14122;DHT22;7139;48.114;11.442;2023-04-15T08:36:06;9.00;97.50
14122;DHT22;7139;48.114;11.442;2023-04-15T08:38:33;9.00;97.70
14122;DHT22;7139;48.114;11.442;2023-04-15T08:41:09;9.10;97.90
14122;DHT22;7139;48.114;11.442;2023-04-15T08:43:45;9.10;98.00
14122;DHT22;7139;48.114;11.442;2023-04-15T08:46:13;9.10;97.90
14122;DHT22;7139;48.114;11.442;2023-04-15T08:48:41;9.20;98.00
14122;DHT22;7139;48.114;11.442;2023-04-15T08:51:10;9.20;97.40
14122;DHT22;7139;48.114;11.442;2023-04-15T08:53:41;9.20;97.20
14122;DHT22;7139;48.114;11.442;2023-04-15T08:56:08;9.10;97.50
14122;DHT22;7139;48.114;11.442;2023-04-15T08:58:36;9.20;97.60
14122;DHT22;7139;48.114;11.442;2023-04-15T09:01:03;9.20;97.10
14122;DHT22;7139;48.114;11.442;2023-04-15T09:03:31;9.20;97.00
14122;DHT22;7139;48.114;11.442;2023-04-15T09:05:58;9.20;97.40
14122;DHT22;7139;48.114;11.442;2023-04-15T09:08:26;9.30;97.30
14122;DHT22;7139;48.114;11.442;2023-04-15T09:10:53;9.30;96.90
14122;DHT22;7139;48.114;11.442;2023-04-15T09:13:20;9.30;96.80
14122;DHT22;7139;48.114;11.442;2023-04-15T09:15:47;9.30;96.50
14122;DHT22;7139;48.114;11.442;2023-04-15T09:18:26;9.30;97.10
14122;DHT22;7139;48.114;11.442;2023-04-15T09:20:54;9.30;97.10
14122;DHT22;7139;48.114;11.442;2023-04-15T09:23:21;9.30;97.20
14122;DHT22;7139;48.114;11.442;2023-04-15T09:25:49;9.40;97.20
14122;DHT22;7139;48.114;11.442;2023-04-15T09:28:23;9.50;97.40
14122;DHT22;7139;48.114;11.442;2023-04-15T09:30:54;9.50;96.80
14122;DHT22;7139;48.114;11.442;2023-04-15T09:33:21;9.50;97.30
14122;DHT22;7139;48.114;11.442;2023-04-15T09:35:56;9.60;97.00
14122;DHT22;7139;48.114;11.442;2023-04-15T09:38:24;9.70;96.50
14122;DHT22;7139;48.114;11.442;2023-04-15T09:40:52;9.70;96.10
14122;DHT22;7139;48.114;11.442;2023-04-15T09:43:21;9.70;96.10
14122;DHT22;7139;48.114;11.442;2023-04-15T09:45:51;9.80;96.00
14122;DHT22;7139;48.114;11.442;2023-04-15T09:48:19;9.80;95.20
14122;DHT22;7139;48.114;11.442;2023-04-15T09:50:46;9.80;95.10
14122;DHT22;7139;48.114;11.442;2023-04-15T09:53:18;9.80;96.00
14122;DHT22;7139;48.114;11.442;2023-04-15T09:55:49;9.90;95.90
14122;DHT22;7139;48.114;11.442;2023-04-15T09:58:21;10.00;95.70
14122;DHT22;7139;48.114;11.442;2023-04-15T10:00:50;10.00;95.30
14122;DHT22;7139;48.114;11.442;2023-04-15T10:03:20;10.00;95.20
14122;DHT22;7139;48.114;11.442;2023-04-15T10:05:48;10.10;95.60
14122;DHT22;7139;48.114;11.442;2023-04-15T10:08:17;10.20;95.50
14122;DHT22;7139;48.114;11.442;2023-04-15T10:10:45;10.10;94.70
14122;DHT22;7139;48.114;11.442;2023-04-15T10:13:13;10.00;94.90
14122;DHT22;7139;48.114;11.442;2023-04-15T10:15:44;10.00;94.20
14122;DHT22;7139;48.114;11.442;2023-04-15T10:18:15;10.00;94.50
14122;DHT22;7139;48.114;11.442;2023-04-15T10:20:43;10.10;95.10
14122;DHT22;7139;48.114;11.442;2023-04-15T10:23:10;10.00;94.90
14122;DHT22;7139;48.114;11.442;2023-04-15T10:25:38;10.00;94.40
14122;DHT22;7139;48.114;11.442;2023-04-15T10:28:06;10.00;94.80
14122;DHT22;7139;48.114;11.442;2023-04-15T10:30:34;10.10;95.00
14122;DHT22;7139;48.114;11.442;2023-04-15T10:33:03;10.20;94.30
14122;DHT22;7139;48.114;11.442;2023-04-15T10:35:32;10.20;94.40
14122;DHT22;7139;48.114;11.442;2023-04-15T10:37:59;10.20;94.30
14122;DHT22;7139;48.114;11.442;2023-04-15T10:40:28;10.20;94.50
14122;DHT22;7139;48.114;11.442;2023-04-15T10:42:57;10.20;94.60
14122;DHT22;7139;48.114;11.442;2023-04-15T10:45:25;10.20;94.70
14122;DHT22;7139;48.114;11.442;2023-04-15T10:47:57;10.10;94.50
14122;DHT22;7139;48.114;11.442;2023-04-15T10:50:30;10.20;94.80
14122;DHT22;7139;48.114;11.442;2023-04-15T10:52:57;10.30;94.70
14122;DHT22;7139;48.114;11.442;2023-04-15T10:55:25;10.30;95.40
14122;DHT22;7139;48.114;11.442;2023-04-15T10:57:53;10.40;95.10
14122;DHT22;7139;48.114;11.442;2023-04-15T11:00:24;10.40;95.20
14122;DHT22;7139;48.114;11.442;2023-04-15T11:02:53;10.60;94.50
14122;DHT22;7139;48.114;11.442;2023-04-15T11:05:21;10.50;94.60
14122;DHT22;7139;48.114;11.442;2023-04-15T11:07:52;10.40;94.20
14122;DHT22;7139;48.114;11.442;2023-04-15T11:10:50;10.50;94.70
14122;DHT22;7139;48.114;11.442;2023-04-15T11:13:22;10.60;95.60
14122;DHT22;7139;48.114;11.442;2023-04-15T11:15:50;10.60;95.20
14122;DHT22;7139;48.114;11.442;2023-04-15T11:18:18;10.60;94.30
14122;DHT22;7139;48.114;11.442;2023-04-15T11:20:46;10.60;94.20
14122;DHT22;7139;48.114;11.442;2023-04-15T11:23:17;10.50;93.80
14122;DHT22;7139;48.114;11.442;2023-04-15T11:25:44;10.40;93.80
14122;DHT22;7139;48.114;11.442;2023-04-15T11:28:11;10.30;94.30
14122;DHT22;7139;48.114;11.442;2023-04-15T11:30:40;10.20;94.40
14122;DHT22;7139;48.114;11.442;2023-04-15T11:33:08;10.20;94.80
14122;DHT22;7139;48.114;11.442;2023-04-15T11:35:36;10.20;95.30
14122;DHT22;7139;48.114;11.442;2023-04-15T11:38:07;10.20;95.20
14122;DHT22;7139;48.114;11.442;2023-04-15T11:40:36;10.30;95.30
14122;DHT22;7139;48.114;11.442;2023-04-15T11:43:05;10.30;95.40
14122;DHT22;7139;48.114;11.442;2023-04-15T11:45:32;10.40;95.30
14122;DHT22;7139;48.114;11.442;2023-04-15T11:48:06;10.40;95.60
14122;DHT22;7139;48.114;11.442;2023-04-15T11:50:33;10.30;95.30
14122;DHT22;7139;48.114;11.442;2023-04-15T11:53:02;10.10;95.30
14122;DHT22;7139;48.114;11.442;2023-04-15T11:55:41;10.00;95.60
14122;DHT22;7139;48.114;11.442;2023-04-15T11:58:10;9.80;96.20
14122;DHT22;7139;48.114;11.442;2023-04-15T12:00:38;9.70;96.50
14122;DHT22;7139;48.114;11.442;2023-04-15T12:03:12;9.60;96.40
14122;DHT22;7139;48.114;11.442;2023-04-15T12:08:59;9.30;96.80
14122;DHT22;7139;48.114;11.442;2023-04-15T12:11:31;9.30;97.30
14122;DHT22;7139;48.114;11.442;2023-04-15T12:14:04;9.40;98.00
14122;DHT22;7139;48.114;11.442;2023-04-15T12:16:33;9.50;98.00
14122;DHT22;7139;48.114;11.442;2023-04-15T12:19:04;9.60;98.30
14122;DHT22;7139;48.114;11.442;2023-04-15T12:21:36;9.50;97.70
14122;DHT22;7139;48.114;11.442;2023-04-15T12:24:05;9.50;97.70
14122;DHT22;7139;48.114;11.442;2023-04-15T12:26:37;9.50;98.00
14122;DHT22;7139;48.114;11.442;2023-04-15T12:29:06;9.50;98.00
14122;DHT22;7139;48.114;11.442;2023-04-15T12:31:33;9.50;97.80
14122;DHT22;7139;48.114;11.442;2023-04-15T12:34:01;9.50;98.10
14122;DHT22;7139;48.114;11.442;2023-04-15T12:36:29;9.60;98.00
14122;DHT22;7139;48.114;11.442;2023-04-15T12:39:01;9.60;97.20
14122;DHT22;7139;48.114;11.442;2023-04-15T12:41:27;9.60;97.10
14122;DHT22;7139;48.114;11.442;2023-04-15T12:43:55;9.60;97.20
14122;DHT22;7139;48.114;11.442;2023-04-15T12:46:22;9.70;97.00
14122;DHT22;7139;48.114;11.442;2023-04-15T12:48:49;9.70;96.40
14122;DHT22;7139;48.114;11.442;2023-04-15T12:51:16;9.80;96.40
14122;DHT22;7139;48.114;11.442;2023-04-15T12:53:43;9.70;95.90
14122;DHT22;7139;48.114;11.442;2023-04-15T12:56:10;9.70;96.80
14122;DHT22;7139;48.114;11.442;2023-04-15T12:58:36;9.80;96.90
14122;DHT22;7139;48.114;11.442;2023-04-15T13:01:04;9.90;95.40
14122;DHT22;7139;48.114;11.442;2023-04-15T13:03:31;9.90;96.10
14122;DHT22;7139;48.114;11.442;2023-04-15T13:05:58;10.00;96.20
14122;DHT22;7139;48.114;11.442;2023-04-15T13:08:26;10.00;95.40
14122;DHT22;7139;48.114;11.442;2023-04-15T13:10:53;10.00;94.90
14122;DHT22;7139;48.114;11.442;2023-04-15T13:13:20;10.00;94.80
14122;DHT22;7139;48.114;11.442;2023-04-15T13:15:46;10.00;94.50
14122;DHT22;7139;48.114;11.442;2023-04-15T13:18:14;10.00;94.60
14122;DHT22;7139;48.114;11.442;2023-04-15T13:20:41;10.00;95.10
14122;DHT22;7139;48.114;11.442;2023-04-15T13:23:08;10.00;95.20
14122;DHT22;7139;48.114;11.442;2023-04-15T13:25:35;9.90;93.70
14122;DHT22;7139;48.114;11.442;2023-04-15T13:28:02;9.80;93.30
14122;DHT22;7139;48.114;11.442;2023-04-15T13:30:28;9.70;93.50
14122;DHT22;7139;48.114;11.442;2023-04-15T13:32:55;9.70;93.50
14122;DHT22;7139;48.114;11.442;2023-04-15T13:35:23;9.70;93.50
14122;DHT22;7139;48.114;11.442;2023-04-15T13:37:50;9.60;93.00
14122;DHT22;7139;48.114;11.442;2023-04-15T13:40:19;9.50;93.50
14122;DHT22;7139;48.114;11.442;2023-04-15T13:42:46;9.40;93.40
14122;DHT22;7139;48.114;11.442;2023-04-15T13:45:13;9.40;93.90
14122;DHT22;7139;48.114;11.442;2023-04-15T13:47:39;9.40;94.70
14122;DHT22;7139;48.114;11.442;2023-04-15T13:50:07;9.40;95.20
14122;DHT22;7139;48.114;11.442;2023-04-15T13:52:35;9.40;95.90
14122;DHT22;7139;48.114;11.442;2023-04-15T13:55:02;9.40;95.90
14122;DHT22;7139;48.114;11.442;2023-04-15T13:57:30;9.40;96.00
14122;DHT22;7139;48.114;11.442;2023-04-15T13:59:57;9.30;96.10
14122;DHT22;7139;48.114;11.442;2023-04-15T14:02:24;9.30;96.90
14122;DHT22;7139;48.114;11.442;2023-04-15T14:04:50;9.30;96.70
14122;DHT22;7139;48.114;11.442;2023-04-15T14:07:38;9.20;96.30
14122;DHT22;7139;48.114;11.442;2023-04-15T14:10:06;9.10;96.30
14122;DHT22;7139;48.114;11.442;2023-04-15T14:12:33;9.10;96.20
14122;DHT22;7139;48.114;11.442;2023-04-15T14:14:59;9.20;96.70
14122;DHT22;7139;48.114;11.442;2023-04-15T14:17:28;9.30;96.90
14122;DHT22;7139;48.114;11.442;2023-04-15T14:19:55;9.30;96.60
14122;DHT22;7139;48.114;11.442;2023-04-15T14:22:22;9.30;96.70
14122;DHT22;7139;48.114;11.442;2023-04-15T14:24:50;9.40;96.80
14122;DHT22;7139;48.114;11.442;2023-04-15T14:27:20;9.40;96.60
14122;DHT22;7139;48.114;11.442;2023-04-15T14:29:46;9.40;96.60
14122;DHT22;7139;48.114;11.442;2023-04-15T14:32:13;9.30;96.00
14122;DHT22;7139;48.114;11.442;2023-04-15T14:34:40;9.40;95.90
14122;DHT22;7139;48.114;11.442;2023-04-15T14:37:07;9.50;96.30
14122;DHT22;7139;48.114;11.442;2023-04-15T14:39:34;9.50;95.50
14122;DHT22;7139;48.114;11.442;2023-04-15T14:42:02;9.60;95.70
14122;DHT22;7139;48.114;11.442;2023-04-15T14:44:28;9.60;96.10
14122;DHT22;7139;48.114;11.442;2023-04-15T14:46:55;9.70;96.00
14122;DHT22;7139;48.114;11.442;2023-04-15T14:49:22;9.70;95.20
14122;DHT22;7139;48.114;11.442;2023-04-15T14:51:49;9.60;94.60
14122;DHT22;7139;48.114;11.442;2023-04-15T14:54:15;9.60;94.70
14122;DHT22;7139;48.114;11.442;2023-04-15T14:56:42;9.50;94.50
14122;DHT22;7139;48.114;11.442;2023-04-15T14:59:10;9.50;95.10
14122;DHT22;7139;48.114;11.442;2023-04-15T15:01:37;9.30;94.50
14122;DHT22;7139;48.114;11.442;2023-04-15T15:04:04;9.30;94.70
14122;DHT22;7139;48.114;11.442;2023-04-15T15:06:30;9.30;94.90
14122;DHT22;7139;48.114;11.442;2023-04-15T15:08:57;9.30;95.40
14122;DHT22;7139;48.114;11.442;2023-04-15T15:11:25;9.30;96.20
14122;DHT22;7139;48.114;11.442;2023-04-15T15:13:52;9.30;96.20
14122;DHT22;7139;48.114;11.442;2023-04-15T15:16:20;9.20;97.00
14122;DHT22;7139;48.114;11.442;2023-04-15T15:18:47;9.20;97.10
14122;DHT22;7139;48.114;11.442;2023-04-15T15:21:14;9.20;98.10
14122;DHT22;7139;48.114;11.442;2023-04-15T15:23:40;9.10;98.20
14122;DHT22;7139;48.114;11.442;2023-04-15T15:26:07;8.90;98.40
14122;DHT22;7139;48.114;11.442;2023-04-15T15:28:34;8.80;99.30
14122;DHT22;7139;48.114;11.442;2023-04-15T15:31:01;8.60;99.90
14122;DHT22;7139;48.114;11.442;2023-04-15T15:33:30;8.40;99.90
14122;DHT22;7139;48.114;11.442;2023-04-15T15:35:57;8.50;99.90
14122;DHT22;7139;48.114;11.442;2023-04-15T15:38:24;8.30;99.90
14122;DHT22;7139;48.114;11.442;2023-04-15T15:40:50;8.20;99.90
14122;DHT22;7139;48.114;11.442;2023-04-15T15:43:17;8.10;99.90
14122;DHT22;7139;48.114;11.442;2023-04-15T15:45:44;8.10;99.90
14122;DHT22;7139;48.114;11.442;2023-04-15T15:48:11;8.20;99.90
14122;DHT22;7139;48.114;11.442;2023-04-15T15:50:40;8.10;99.90